Time;durP1;ratioP1;P1;durP2;ratioP2;P2;SDS_P1;SDS_P2;PMS_P1;PMS_P2;Temp;Humidity;BMP_temperature;BMP_pressure;BME280_temperature;BME280_humidity;BME280_pressure;Samples;Min_cycle;Max_cycle;Signal;HPM_P1;HPM_P2
2023/09/28 00:02:56;;;;;;;7.90;5.00;;;14.60;98.00;;;;;;5032025;28;20553;-67
2023/09/28 00:05:22;;;;;;;8.93;5.13;;;14.60;98.00;;;;;;5031000;28;20451;-66
2023/09/28 00:07:50;;;;;;;12.60;5.33;;;14.60;98.00;;;;;;5031949;28;21169;-67
2023/09/28 00:10:17;;;;;;;8.43;5.03;;;14.80;98.00;;;;;;5032245;28;21146;-66
2023/09/28 00:12:51;;;;;;;7.90;4.60;;;14.80;98.00;;;;;;5031743;28;20459;-66
2023/09/28 00:15:18;;;;;;;9.33;5.00;;;14.90;98.00;;;;;;5032071;28;20450;-67
2023/09/28 00:17:47;;;;;;;8.70;5.13;;;14.70;98.00;;;;;;5032057;28;20567;-67
2023/09/28 00:20:17;;;;;;;8.57;5.13;;;14.60;98.00;;;;;;5032185;28;20969;-68
2023/09/28 00:22:46;;;;;;;11.10;5.70;;;14.50;98.00;;;;;;5031937;28;20455;-68
2023/09/28 00:25:12;;;;;;;7.80;4.63;;;14.30;98.00;;;;;;5031894;28;20533;-67
2023/09/28 00:27:41;;;;;;;9.90;4.80;;;14.20;98.00;;;;;;5030769;28;20463;-66
2023/09/28 00:30:09;;;;;;;12.00;5.20;;;14.30;98.00;;;;;;5032105;28;20450;-68
2023/09/28 00:32:38;;;;;;;11.30;5.50;;;14.30;98.00;;;;;;5030533;28;20484;-70
2023/09/28 00:35:07;;;;;;;10.37;5.73;;;14.40;98.00;;;;;;5031915;28;20830;-67
2023/09/28 00:37:36;;;;;;;10.90;5.30;;;14.20;98.00;;;;;;5031748;28;20513;-67
2023/09/28 00:40:08;;;;;;;9.73;5.13;;;14.00;98.00;;;;;;5031827;28;20462;-68
2023/09/28 00:42:35;;;;;;;9.13;5.20;;;13.90;98.00;;;;;;5032159;28;20550;-68
2023/09/28 00:45:02;;;;;;;11.47;5.60;;;13.90;98.00;;;;;;5031720;28;20462;-67
2023/09/28 00:47:30;;;;;;;9.10;5.10;;;13.90;98.00;;;;;;5031823;28;20973;-67
2023/09/28 00:49:57;;;;;;;9.17;5.10;;;13.90;98.00;;;;;;5031670;28;20454;-70
2023/09/28 00:52:25;;;;;;;10.80;5.87;;;13.90;98.00;;;;;;5033719;28;20451;-68
2023/09/28 00:54:53;;;;;;;9.63;5.50;;;14.10;98.00;;;;;;5034909;28;20479;-67
2023/09/28 00:57:20;;;;;;;11.70;4.90;;;14.10;98.00;;;;;;5035511;28;20549;-67
2023/09/28 00:59:47;;;;;;;10.47;5.20;;;13.90;98.00;;;;;;5035147;28;20541;-67
2023/09/28 01:02:16;;;;;;;10.03;5.37;;;14.00;98.00;;;;;;5035244;28;20509;-68
2023/09/28 01:04:42;;;;;;;9.87;5.30;;;13.90;98.00;;;;;;5035122;28;20462;-68
2023/09/28 01:07:12;;;;;;;10.33;5.70;;;13.90;98.00;;;;;;5035385;28;20463;-68
2023/09/28 01:09:38;;;;;;;15.17;5.50;;;14.00;98.00;;;;;;5034069;28;20450;-68
2023/09/28 01:12:08;;;;;;;11.37;5.43;;;14.10;98.00;;;;;;5035024;28;20466;-67
2023/09/28 01:14:37;;;;;;;9.80;5.10;;;13.90;98.00;;;;;;5035025;28;20482;-68
2023/09/28 01:17:04;;;;;;;10.60;5.47;;;14.00;98.00;;;;;;5035229;28;21012;-67
2023/09/28 01:19:30;;;;;;;8.60;5.20;;;13.80;98.00;;;;;;5033945;28;20516;-68
2023/09/28 01:21:57;;;;;;;8.40;4.97;;;13.60;98.00;;;;;;5035057;28;20879;-69
2023/09/28 01:24:25;;;;;;;9.33;5.70;;;13.70;98.00;;;;;;5034932;28;20461;-70
2023/09/28 01:26:52;;;;;;;9.27;5.10;;;13.80;98.00;;;;;;5034869;28;20477;-68
2023/09/28 01:29:18;;;;;;;9.80;5.33;;;13.90;98.00;;;;;;5034871;28;20944;-68
2023/09/28 01:31:45;;;;;;;10.17;4.90;;;14.10;98.00;;;;;;5035085;28;20668;-67
2023/09/28 01:34:11;;;;;;;10.67;5.30;;;14.20;98.00;;;;;;5034538;28;20486;-67
2023/09/28 01:36:38;;;;;;;10.70;5.67;;;14.10;98.00;;;;;;5034601;28;20972;-68
2023/09/28 01:39:07;;;;;;;11.57;5.60;;;13.90;98.00;;;;;;5034675;28;20442;-67
2023/09/28 01:41:36;;;;;;;13.50;5.97;;;13.80;98.00;;;;;;5034649;28;20630;-67
2023/09/28 01:44:03;;;;;;;11.47;5.37;;;13.70;98.00;;;;;;5034531;28;20504;-68
2023/09/28 01:46:30;;;;;;;11.67;5.50;;;13.70;98.00;;;;;;5033330;28;21023;-69
2023/09/28 01:48:56;;;;;;;10.43;5.13;;;13.80;98.00;;;;;;5034689;28;20449;-67
2023/09/28 01:51:23;;;;;;;12.67;5.47;;;13.90;98.00;;;;;;5034703;28;20797;-67
2023/09/28 01:53:49;;;;;;;9.27;4.83;;;14.10;98.00;;;;;;5034272;28;20561;-68
2023/09/28 01:56:18;;;;;;;10.97;5.33;;;14.20;98.00;;;;;;5034278;28;20467;-68
2023/09/28 01:58:46;;;;;;;12.30;5.77;;;14.20;98.00;;;;;;5034334;28;20897;-66
2023/09/28 02:01:22;;;;;;;12.63;6.00;;;14.20;98.00;;;;;;5016432;28;20462;-68
2023/09/28 02:03:48;;;;;;;12.43;5.00;;;14.10;98.00;;;;;;5033197;28;20549;-67
2023/09/28 02:06:15;;;;;;;8.93;5.07;;;14.00;98.00;;;;;;5033016;28;20505;-66
2023/09/28 02:08:41;;;;;;;11.00;5.40;;;14.10;98.00;;;;;;5034049;28;20453;-69
2023/09/28 02:11:10;;;;;;;12.07;6.00;;;13.80;98.00;;;;;;5034256;28;20459;-68
2023/09/28 02:13:36;;;;;;;11.87;5.20;;;13.90;98.00;;;;;;5033846;28;20541;-68
2023/09/28 02:16:10;;;;;;;10.50;5.70;;;14.10;98.00;;;;;;5034121;28;20461;-67
2023/09/28 02:18:37;;;;;;;12.27;5.20;;;14.10;98.00;;;;;;5033118;28;20453;-66
2023/09/28 02:21:11;;;;;;;11.53;5.40;;;14.10;98.00;;;;;;5034443;28;20501;-67
2023/09/28 02:23:37;;;;;;;10.63;5.10;;;14.10;98.00;;;;;;5034035;28;20461;-67
2023/09/28 02:26:06;;;;;;;8.97;4.93;;;14.10;98.00;;;;;;5033907;28;20462;-66
2023/09/28 02:28:32;;;;;;;9.83;5.43;;;14.30;98.00;;;;;;5033921;28;20873;-69
2023/09/28 02:31:06;;;;;;;10.67;5.20;;;14.50;98.00;;;;;;5033504;28;20469;-67
2023/09/28 02:33:33;;;;;;;12.53;5.20;;;14.40;98.00;;;;;;5033671;28;20524;-67
2023/09/28 02:36:00;;;;;;;9.67;4.93;;;14.40;98.00;;;;;;5033660;28;21036;-67
2023/09/28 02:38:26;;;;;;;10.67;5.43;;;14.30;98.00;;;;;;5032408;28;20451;-69
2023/09/28 02:40:53;;;;;;;15.10;5.23;;;14.20;98.00;;;;;;5033405;28;20549;-66
2023/09/28 02:43:19;;;;;;;10.27;5.23;;;14.00;98.00;;;;;;5033202;28;20958;-69
2023/09/28 02:45:46;;;;;;;9.13;5.03;;;13.90;98.00;;;;;;5033290;28;20908;-66
2023/09/28 02:48:14;;;;;;;9.90;5.13;;;13.80;98.00;;;;;;5033177;28;20456;-68
2023/09/28 02:50:41;;;;;;;9.13;5.47;;;13.50;98.00;;;;;;5033122;28;20995;-67
2023/09/28 02:53:08;;;;;;;12.40;5.63;;;13.60;98.00;;;;;;5033153;28;20451;-67
2023/09/28 02:55:35;;;;;;;9.00;4.90;;;13.70;98.00;;;;;;5033375;28;20462;-68
2023/09/28 02:58:01;;;;;;;8.47;4.87;;;13.80;98.00;;;;;;5033031;28;20925;-67
2023/09/28 03:00:32;;;;;;;8.77;4.60;;;13.90;98.00;;;;;;5032943;28;20478;-67
2023/09/28 03:03:00;;;;;;;8.60;4.70;;;14.10;98.00;;;;;;5033035;28;20504;-67
2023/09/28 03:05:28;;;;;;;10.47;5.30;;;14.20;98.00;;;;;;5033012;28;20550;-67
2023/09/28 03:07:55;;;;;;;9.40;5.20;;;14.10;98.00;;;;;;5032754;28;20466;-67
2023/09/28 03:10:23;;;;;;;10.47;5.30;;;14.10;98.00;;;;;;5030957;28;20447;-69
2023/09/28 03:12:51;;;;;;;10.63;5.20;;;13.90;98.00;;;;;;5032479;28;20513;-67
2023/09/28 03:15:20;;;;;;;8.67;5.00;;;13.80;98.00;;;;;;5032274;28;20541;-67
2023/09/28 03:17:46;;;;;;;10.70;5.00;;;13.70;98.00;;;;;;5031307;28;20451;-68
2023/09/28 03:20:14;;;;;;;7.80;4.73;;;13.50;98.00;;;;;;5032444;28;20820;-67
2023/09/28 03:22:45;;;;;;;7.87;4.63;;;13.40;98.00;;;;;;5032666;28;20455;-66
2023/09/28 03:25:16;;;;;;;11.50;5.00;;;13.30;98.00;;;;;;5032591;28;20450;-67
2023/09/28 03:27:45;;;;;;;9.53;4.87;;;13.50;98.00;;;;;;5032373;28;20459;-67
2023/09/28 03:30:13;;;;;;;10.27;4.90;;;13.60;98.00;;;;;;5032601;28;20454;-69
2023/09/28 03:32:40;;;;;;;9.97;5.07;;;13.60;98.00;;;;;;5032667;28;20462;-67
2023/09/28 03:35:09;;;;;;;12.43;5.10;;;13.40;98.00;;;;;;5032386;28;21075;-68
2023/09/28 03:37:38;;;;;;;13.13;6.00;;;13.40;98.00;;;;;;5032395;28;21031;-66
2023/09/28 03:40:11;;;;;;;10.13;5.67;;;13.30;98.00;;;;;;5032486;28;20459;-67
2023/09/28 03:42:39;;;;;;;7.63;4.73;;;13.30;98.00;;;;;;5032380;28;20504;-69
2023/09/28 03:45:08;;;;;;;14.10;5.10;;;13.60;98.00;;;;;;5032256;28;20458;-67
2023/09/28 03:47:36;;;;;;;10.63;5.67;;;13.60;98.00;;;;;;5032545;28;20513;-67
2023/09/28 03:50:05;;;;;;;8.90;4.87;;;13.50;98.00;;;;;;5032451;28;20462;-67
2023/09/28 03:52:34;;;;;;;9.50;4.83;;;13.40;98.00;;;;;;5032467;28;20820;-67
2023/09/28 03:55:03;;;;;;;10.87;5.33;;;13.40;98.00;;;;;;5032319;28;20494;-67
2023/09/28 03:57:32;;;;;;;8.60;4.50;;;13.40;98.00;;;;;;5032464;28;20877;-67
2023/09/28 03:59:59;;;;;;;11.73;4.80;;;13.40;98.00;;;;;;5032381;28;20938;-69
2023/09/28 04:02:28;;;;;;;8.10;4.87;;;13.50;98.00;;;;;;5032459;28;20991;-68
2023/09/28 04:04:55;;;;;;;8.33;4.80;;;13.70;98.00;;;;;;5031867;28;20454;-69
2023/09/28 04:07:22;;;;;;;10.30;5.17;;;13.70;98.00;;;;;;5032186;28;20487;-70
2023/09/28 04:09:50;;;;;;;8.17;4.83;;;13.60;98.00;;;;;;5031927;28;20455;-68
2023/09/28 04:12:17;;;;;;;9.83;4.80;;;13.70;98.00;;;;;;5031791;28;20957;-68
2023/09/28 04:14:46;;;;;;;10.57;5.50;;;13.70;98.00;;;;;;5030896;28;20490;-66
2023/09/28 04:17:13;;;;;;;11.40;5.00;;;13.40;98.00;;;;;;5032027;28;20459;-69
2023/09/28 04:19:40;;;;;;;9.27;4.60;;;13.20;98.00;;;;;;5031530;28;20451;-67
2023/09/28 04:22:07;;;;;;;10.17;5.03;;;13.10;98.00;;;;;;5031733;28;20459;-70
2023/09/28 04:24:37;;;;;;;10.37;5.07;;;13.10;98.00;;;;;;5031649;28;20455;-66
2023/09/28 04:27:04;;;;;;;11.33;5.63;;;13.10;98.00;;;;;;5034889;28;20477;-67
2023/09/28 04:29:31;;;;;;;11.23;5.70;;;13.20;98.00;;;;;;5038848;28;20462;-66
2023/09/28 04:31:59;;;;;;;12.97;5.30;;;13.30;98.00;;;;;;5038465;28;20937;-67
2023/09/28 04:34:26;;;;;;;12.20;5.40;;;13.40;98.00;;;;;;5038066;28;20536;-66
2023/09/28 04:36:53;;;;;;;15.23;6.30;;;13.60;98.00;;;;;;5038361;28;20823;-68
2023/09/28 04:39:23;;;;;;;10.77;5.77;;;13.60;98.00;;;;;;5038362;28;20450;-67
2023/09/28 04:41:52;;;;;;;11.30;5.83;;;13.60;98.00;;;;;;5038161;28;20454;-67
2023/09/28 04:44:19;;;;;;;13.70;6.33;;;13.60;98.00;;;;;;5038108;28;21018;-67
2023/09/28 04:46:48;;;;;;;9.40;5.63;;;13.70;98.00;;;;;;5038477;28;20466;-66
2023/09/28 04:49:17;;;;;;;11.00;5.20;;;13.80;98.00;;;;;;5038320;28;20455;-68
2023/09/28 04:51:44;;;;;;;16.07;6.00;;;14.10;98.00;;;;;;5037109;28;20450;-68
2023/09/28 04:54:11;;;;;;;10.80;5.70;;;14.20;98.00;;;;;;5038084;28;20870;-67
2023/09/28 04:56:39;;;;;;;12.43;5.70;;;14.10;98.00;;;;;;5038147;28;20474;-68
2023/09/28 04:59:06;;;;;;;9.63;5.20;;;14.00;98.00;;;;;;5038243;28;20489;-67
2023/09/28 05:01:33;;;;;;;11.87;5.90;;;14.00;98.00;;;;;;5038173;28;20455;-68
2023/09/28 05:04:00;;;;;;;14.33;5.43;;;14.00;98.00;;;;;;5038112;28;20497;-68
2023/09/28 05:06:29;;;;;;;12.73;6.00;;;13.90;98.00;;;;;;5038136;28;20895;-67
2023/09/28 05:08:56;;;;;;;11.73;5.97;;;13.90;98.00;;;;;;5038077;28;20886;-67
2023/09/28 05:11:23;;;;;;;14.10;5.00;;;13.90;98.00;;;;;;5038201;28;20485;-67
2023/09/28 05:13:51;;;;;;;11.17;5.97;;;14.00;98.00;;;;;;5037800;28;20948;-67
2023/09/28 05:16:18;;;;;;;10.17;5.20;;;13.90;98.00;;;;;;5037990;28;20449;-66
2023/09/28 05:18:45;;;;;;;13.63;6.40;;;13.70;98.00;;;;;;5036795;28;20850;-67
2023/09/28 05:21:14;;;;;;;11.37;6.10;;;13.70;98.00;;;;;;5038277;28;20446;-67
2023/09/28 05:23:42;;;;;;;10.83;5.30;;;13.50;98.00;;;;;;5037678;28;20594;-68
2023/09/28 05:26:09;;;;;;;13.83;5.73;;;13.60;98.00;;;;;;5038015;28;20450;-67
2023/09/28 05:28:37;;;;;;;12.93;6.13;;;13.70;98.00;;;;;;5037943;28;20446;-67
2023/09/28 05:31:04;;;;;;;13.70;6.20;;;13.70;98.00;;;;;;5038194;28;20450;-66
2023/09/28 05:33:31;;;;;;;10.67;5.83;;;13.70;98.00;;;;;;5037835;28;20482;-66
2023/09/28 05:35:58;;;;;;;12.30;5.87;;;13.80;98.00;;;;;;5037862;28;20997;-67
2023/09/28 05:38:25;;;;;;;12.67;6.00;;;13.80;98.00;;;;;;5035215;28;20454;-67
2023/09/28 05:40:56;;;;;;;13.80;5.90;;;13.50;98.00;;;;;;5035005;28;21134;-67
2023/09/28 05:43:23;;;;;;;11.93;5.87;;;13.40;98.00;;;;;;5034767;28;20489;-70
2023/09/28 05:45:50;;;;;;;10.47;5.83;;;13.50;98.00;;;;;;5034643;28;20461;-65
2023/09/28 05:48:18;;;;;;;10.83;6.13;;;13.40;98.00;;;;;;5034758;28;20719;-66
2023/09/28 05:50:45;;;;;;;10.37;5.20;;;13.50;98.00;;;;;;5034310;28;20500;-67
2023/09/28 05:53:12;;;;;;;13.73;6.30;;;13.40;98.00;;;;;;5034318;28;20446;-66
2023/09/28 05:55:40;;;;;;;11.80;6.30;;;13.40;98.00;;;;;;5033315;28;20532;-66
2023/09/28 05:58:09;;;;;;;11.70;5.90;;;13.40;98.00;;;;;;5033159;28;20531;-69
2023/09/28 06:00:37;;;;;;;17.23;5.47;;;13.50;98.00;;;;;;5034378;28;20469;-69
2023/09/28 06:03:05;;;;;;;11.43;5.90;;;13.50;98.00;;;;;;5033165;28;20467;-68
2023/09/28 06:05:32;;;;;;;10.87;5.60;;;13.70;98.00;;;;;;5034323;28;20469;-71
2023/09/28 06:08:00;;;;;;;18.77;9.03;;;13.80;98.00;;;;;;5034516;28;20509;-69
2023/09/28 06:10:27;;;;;;;17.57;8.30;;;13.70;98.00;;;;;;5033008;28;20457;-69
2023/09/28 06:12:55;;;;;;;15.37;7.20;;;13.70;98.00;;;;;;5034300;28;20454;-69
2023/09/28 06:15:23;;;;;;;11.80;5.90;;;13.80;98.00;;;;;;5034440;28;20483;-69
2023/09/28 06:17:51;;;;;;;10.53;5.67;;;13.80;98.00;;;;;;5034229;28;20465;-70
2023/09/28 06:20:18;;;;;;;7.87;4.60;;;13.80;98.00;;;;;;5033978;28;20443;-69
2023/09/28 06:22:48;;;;;;;14.60;5.20;;;13.80;98.00;;;;;;5033909;28;20508;-68
2023/09/28 06:25:16;;;;;;;11.40;5.40;;;13.80;98.00;;;;;;5033949;28;20953;-68
2023/09/28 06:27:43;;;;;;;10.50;5.53;;;14.00;98.00;;;;;;5033011;28;20493;-69
2023/09/28 06:30:10;;;;;;;12.07;6.17;;;14.00;98.00;;;;;;5033968;28;20956;-66
2023/09/28 06:32:39;;;;;;;11.87;6.00;;;14.20;98.00;;;;;;5033812;28;20458;-71
2023/09/28 06:35:08;;;;;;;11.80;5.73;;;14.30;98.00;;;;;;5033811;28;20490;-71
2023/09/28 06:37:36;;;;;;;13.30;5.90;;;14.30;98.00;;;;;;5033638;28;20446;-70
2023/09/28 06:40:03;;;;;;;11.63;5.70;;;14.30;98.00;;;;;;5033521;28;20507;-72
2023/09/28 06:42:31;;;;;;;12.37;5.97;;;14.20;98.00;;;;;;5032449;28;20789;-71
2023/09/28 06:44:58;;;;;;;12.90;6.60;;;14.30;98.00;;;;;;5033618;28;20482;-70
2023/09/28 06:47:26;;;;;;;16.73;7.87;;;14.50;98.00;;;;;;5033656;28;20801;-71
2023/09/28 06:49:54;;;;;;;13.53;7.00;;;14.60;98.00;;;;;;5033079;28;20447;-70
2023/09/28 06:52:21;;;;;;;18.87;6.90;;;14.70;98.00;;;;;;5033579;28;20455;-71
2023/09/28 06:54:48;;;;;;;13.37;5.70;;;14.80;98.00;;;;;;5033378;28;21012;-71
2023/09/28 06:57:16;;;;;;;13.10;6.77;;;14.80;98.00;;;;;;5032184;28;20451;-71
2023/09/28 06:59:43;;;;;;;12.43;6.40;;;14.80;98.00;;;;;;5033484;28;20545;-71
2023/09/28 07:02:10;;;;;;;12.50;6.33;;;14.90;98.00;;;;;;5033284;28;20474;-72
2023/09/28 07:04:37;;;;;;;15.77;6.60;;;15.00;98.00;;;;;;5033513;28;20465;-70
2023/09/28 07:07:06;;;;;;;11.90;6.53;;;15.20;98.00;;;;;;5032114;28;20454;-70
2023/09/28 07:09:34;;;;;;;15.90;7.23;;;15.10;98.00;;;;;;5033348;28;20529;-70
2023/09/28 07:12:01;;;;;;;12.77;6.40;;;15.10;98.00;;;;;;5033255;28;20945;-71
2023/09/28 07:14:32;;;;;;;9.43;6.00;;;15.10;98.00;;;;;;5032996;28;20485;-69
2023/09/28 07:16:59;;;;;;;20.50;7.23;;;15.10;98.00;;;;;;5032926;28;20462;-71
2023/09/28 07:19:28;;;;;;;14.20;6.67;;;15.10;98.00;;;;;;5031696;28;20992;-70
2023/09/28 07:21:55;;;;;;;14.13;6.80;;;15.20;98.00;;;;;;5031899;28;20980;-70
2023/09/28 07:24:25;;;;;;;14.53;7.10;;;15.10;98.00;;;;;;5032638;28;20564;-70
2023/09/28 07:26:52;;;;;;;16.00;7.70;;;15.10;98.00;;;;;;5032676;28;20454;-69
2023/09/28 07:29:20;;;;;;;14.27;6.83;;;15.00;98.00;;;;;;5032321;28;20447;-70
2023/09/28 07:31:47;;;;;;;12.70;6.53;;;15.00;98.00;;;;;;5032335;28;20462;-70
2023/09/28 07:34:14;;;;;;;15.73;6.27;;;15.00;98.00;;;;;;5032758;28;20825;-70
2023/09/28 07:36:41;;;;;;;13.40;6.50;;;15.00;98.00;;;;;;5032276;28;20523;-70
2023/09/28 07:39:09;;;;;;;10.83;5.90;;;15.10;98.00;;;;;;5032225;28;20831;-68
2023/09/28 07:41:38;;;;;;;12.80;6.23;;;15.30;98.00;;;;;;5032277;28;20858;-68
2023/09/28 07:44:06;;;;;;;10.07;5.80;;;15.50;98.00;;;;;;5032188;28;20459;-68
2023/09/28 07:46:33;;;;;;;11.20;5.93;;;15.60;98.00;;;;;;5031953;28;20458;-68
2023/09/28 07:49:00;;;;;;;13.00;6.20;;;15.70;98.00;;;;;;5032180;28;20543;-68
2023/09/28 07:51:27;;;;;;;14.20;6.57;;;16.00;98.00;;;;;;5032121;28;21010;-69
2023/09/28 07:53:54;;;;;;;17.70;6.23;;;16.20;98.00;;;;;;5032058;28;20868;-69
2023/09/28 07:56:21;;;;;;;9.53;5.50;;;16.50;98.00;;;;;;5032141;28;20482;-71
2023/09/28 07:58:50;;;;;;;14.57;5.80;;;16.70;98.00;;;;;;5014453;28;21090;-69
2023/09/28 08:01:18;;;;;;;11.50;6.30;;;16.80;98.00;;;;;;5031352;28;20457;-68
2023/09/28 08:03:45;;;;;;;12.57;6.17;;;16.90;98.00;;;;;;5012850;28;20474;-69
2023/09/28 08:06:13;;;;;;;11.73;6.43;;;17.10;98.00;;;;;;5032077;28;20454;-68
2023/09/28 08:08:41;;;;;;;12.20;6.40;;;17.20;98.00;;;;;;5031806;28;20482;-67
2023/09/28 08:11:08;;;;;;;12.33;6.37;;;17.20;98.00;;;;;;5031412;28;20454;-69
2023/09/28 08:13:35;;;;;;;10.60;5.83;;;17.30;98.00;;;;;;5031712;28;20457;-68
2023/09/28 08:16:04;;;;;;;10.57;5.50;;;17.40;98.00;;;;;;5022437;28;20478;-70
2023/09/28 08:18:31;;;;;;;10.60;5.60;;;17.50;98.00;;;;;;5031734;28;20455;-71
2023/09/28 08:20:58;;;;;;;10.83;5.53;;;17.70;98.00;;;;;;5031681;28;20451;-69
2023/09/28 08:23:26;;;;;;;9.20;5.23;;;17.80;98.00;;;;;;5031599;28;20462;-68
2023/09/28 08:25:53;;;;;;;11.10;5.70;;;17.90;98.00;;;;;;5030566;28;20466;-68
2023/09/28 08:28:21;;;;;;;9.37;5.30;;;18.10;98.00;;;;;;5022163;28;20829;-70
2023/09/28 08:30:53;;;;;;;13.63;5.83;;;18.30;98.00;;;;;;5011700;28;20466;-70
2023/09/28 08:33:22;;;;;;;9.67;5.40;;;18.40;98.00;;;;;;4994515;28;20455;-68
2023/09/28 08:35:50;;;;;;;7.67;4.80;;;18.70;98.00;;;;;;5011523;28;21054;-68
2023/09/28 08:38:20;;;;;;;7.30;4.53;;;18.80;98.00;;;;;;5011866;28;20451;-69
2023/09/28 08:40:48;;;;;;;8.73;4.80;;;19.00;98.00;;;;;;5024554;28;20561;-70
2023/09/28 08:43:21;;;;;;;9.20;5.23;;;19.10;98.00;;;;;;5031868;28;20447;-69
2023/09/28 08:45:51;;;;;;;10.90;5.33;;;19.30;98.00;;;;;;5045581;28;20466;-70
2023/09/28 08:48:21;;;;;;;9.10;4.83;;;19.50;98.00;;;;;;5050835;28;20463;-68
2023/09/28 08:51:01;;;;;;;11.13;5.30;;;19.70;98.00;;;;;;5033921;28;20454;-68
2023/09/28 08:53:28;;;;;;;8.40;4.83;;;19.80;98.00;;;;;;5051646;28;20462;-69
2023/09/28 08:55:56;;;;;;;9.30;4.90;;;19.90;98.00;;;;;;5051543;28;20493;-70
2023/09/28 08:58:26;;;;;;;8.23;4.57;;;19.90;98.00;;;;;;5051429;28;20446;-66
2023/09/28 09:00:53;;;;;;;7.33;4.63;;;20.10;98.00;;;;;;5051370;28;20461;-70
2023/09/28 09:03:24;;;;;;;7.30;4.70;;;20.20;98.00;;;;;;5051487;28;20466;-67
2023/09/28 09:05:54;;;;;;;7.43;4.27;;;20.50;98.00;;;;;;5050887;28;20485;-68
2023/09/28 09:08:23;;;;;;;12.20;4.90;;;20.70;98.00;;;;;;5051201;28;20454;-67
2023/09/28 09:10:52;;;;;;;8.00;4.40;;;20.90;98.00;;;;;;5050927;28;20499;-67
2023/09/28 09:13:19;;;;;;;7.47;4.30;;;21.10;98.00;;;;;;5035592;28;21139;-68
2023/09/28 09:15:47;;;;;;;9.67;4.70;;;21.20;98.00;;;;;;5054687;28;20485;-71
2023/09/28 09:18:18;;;;;;;7.23;4.37;;;21.40;98.00;;;;;;5054788;28;20940;-73
2023/09/28 09:20:46;;;;;;;8.80;5.07;;;21.40;98.00;;;;;;5054548;28;20446;-72
2023/09/28 09:23:15;;;;;;;7.77;4.30;;;21.60;98.00;;;;;;5054905;28;21047;-74
2023/09/28 09:25:44;;;;;;;7.43;4.37;;;21.70;98.00;;;;;;5054780;28;20461;-62
2023/09/28 09:28:12;;;;;;;8.97;4.93;;;21.90;98.00;;;;;;5020618;28;20449;-70
2023/09/28 09:30:40;;;;;;;6.30;4.40;;;22.00;98.00;;;;;;5054408;28;20462;-70
2023/09/28 09:33:08;;;;;;;10.10;4.10;;;22.10;98.00;;;;;;5054835;28;20485;-68
2023/09/28 09:35:35;;;;;;;14.30;4.67;;;22.30;98.00;;;;;;5054537;28;20481;-70
2023/09/28 09:38:03;;;;;;;7.23;4.80;;;22.50;98.00;;;;;;5054538;28;20446;-69
2023/09/28 09:40:32;;;;;;;8.13;4.73;;;22.60;98.00;;;;;;5054266;28;20450;-70
2023/09/28 09:43:07;;;;;;;9.27;4.30;;;22.80;98.00;;;;;;5054430;28;20484;-70
2023/09/28 09:45:38;;;;;;;7.37;4.23;;;23.00;98.00;;;;;;5053731;28;20477;-70
2023/09/28 09:48:07;;;;;;;10.90;6.70;;;23.20;98.00;;;;;;5054326;28;20489;-72
2023/09/28 09:50:36;;;;;;;8.10;4.73;;;23.40;98.00;;;;;;5036540;28;20454;-70
2023/09/28 09:53:05;;;;;;;7.53;4.70;;;23.60;98.00;;;;;;5054223;28;20453;-71
2023/09/28 09:55:35;;;;;;;7.43;4.47;;;23.70;98.00;;;;;;5054093;28;20446;-72
2023/09/28 09:58:03;;;;;;;7.50;4.30;;;23.90;98.00;;;;;;5054219;28;20461;-71
2023/09/28 10:00:32;;;;;;;7.10;4.30;;;24.10;98.00;;;;;;5054197;28;20508;-71
2023/09/28 10:03:00;;;;;;;12.00;4.60;;;24.30;98.00;;;;;;5053978;28;20604;-71
2023/09/28 10:05:29;;;;;;;8.13;4.67;;;24.40;98.00;;;;;;5053790;28;20465;-70
2023/09/28 10:07:58;;;;;;;8.80;4.63;;;24.50;98.00;;;;;;5053465;28;20453;-70
2023/09/28 10:10:27;;;;;;;7.10;4.57;;;24.60;98.00;;;;;;5053589;28;20532;-72
2023/09/28 10:12:57;;;;;;;6.83;4.23;;;24.90;98.00;;;;;;5053779;28;20492;-70
2023/09/28 10:15:25;;;;;;;6.97;4.20;;;25.10;98.00;;;;;;5053832;28;20468;-70
2023/09/28 10:17:53;;;;;;;6.47;4.13;;;25.30;98.00;;;;;;5053809;28;20454;-70
2023/09/28 10:20:21;;;;;;;6.43;3.90;;;25.50;98.00;;;;;;5038732;28;20448;-70
2023/09/28 10:22:49;;;;;;;7.00;4.07;;;25.70;98.00;;;;;;5053964;28;20450;-72
2023/09/28 10:25:17;;;;;;;9.40;4.50;;;25.90;98.00;;;;;;5053382;28;20458;-72
2023/09/28 10:27:46;;;;;;;6.80;4.13;;;26.10;96.80;;;;;;5053875;28;20449;-72
2023/09/28 10:30:19;;;;;;;5.90;3.97;;;26.30;95.90;;;;;;5036007;28;20493;-72
2023/09/28 10:32:47;;;;;;;6.30;4.20;;;26.40;95.40;;;;;;5054449;28;20450;-71
2023/09/28 10:35:30;;;;;;;5.90;4.00;;;26.60;93.20;;;;;;5036597;28;20841;-72
2023/09/28 10:38:20;;;;;;;6.27;3.53;;;26.80;94.40;;;;;;5053425;28;20450;-75
2023/09/28 10:41:02;;;;;;;5.27;3.60;;;27.10;92.80;;;;;;5053355;28;20486;-71
2023/09/28 10:43:29;;;;;;;6.30;4.20;;;27.30;92.60;;;;;;5053348;28;20453;-73
2023/09/28 10:45:58;;;;;;;7.27;3.87;;;27.50;91.70;;;;;;5052176;28;21158;-72
2023/09/28 10:48:25;;;;;;;6.10;3.87;;;27.60;90.70;;;;;;5052947;28;20480;-72
2023/09/28 10:50:53;;;;;;;5.70;3.70;;;27.80;89.00;;;;;;5034724;28;20449;-72
2023/09/28 10:53:21;;;;;;;5.83;3.80;;;27.90;89.00;;;;;;5051867;28;20496;-71
2023/09/28 10:55:48;;;;;;;5.13;3.53;;;28.00;89.20;;;;;;5034366;28;20529;-71
2023/09/28 10:58:15;;;;;;;5.70;3.50;;;28.20;89.70;;;;;;5034988;28;21010;-72
2023/09/28 11:00:42;;;;;;;5.73;3.50;;;28.50;89.60;;;;;;5035404;28;20947;-70
2023/09/28 11:03:11;;;;;;;8.23;4.17;;;28.60;88.30;;;;;;5035102;28;20461;-72
2023/09/28 11:05:38;;;;;;;7.83;4.10;;;28.80;86.30;;;;;;5052747;28;20454;-71
2023/09/28 11:08:07;;;;;;;9.27;3.97;;;29.00;83.30;;;;;;5052484;28;20461;-72
2023/09/28 11:10:34;;;;;;;6.07;3.60;;;29.20;84.50;;;;;;5052691;28;20874;-70
2023/09/28 11:13:02;;;;;;;5.50;3.60;;;29.40;85.30;;;;;;5052699;28;20453;-71
2023/09/28 11:15:29;;;;;;;5.83;4.00;;;29.60;84.40;;;;;;5035041;28;20449;-70
2023/09/28 11:17:57;;;;;;;5.97;3.87;;;29.60;82.40;;;;;;5052692;28;20492;-70
2023/09/28 11:20:26;;;;;;;4.37;3.40;;;29.80;82.30;;;;;;5052418;28;20450;-70
2023/09/28 11:22:56;;;;;;;8.00;4.00;;;29.80;80.70;;;;;;5052618;28;20454;-71
2023/09/28 11:25:25;;;;;;;5.00;3.43;;;30.00;82.10;;;;;;5052336;28;20453;-70
2023/09/28 11:27:52;;;;;;;5.83;3.60;;;30.20;82.40;;;;;;5052502;28;20540;-69
2023/09/28 11:30:20;;;;;;;5.40;3.60;;;30.40;80.00;;;;;;5035142;28;21012;-70
2023/09/28 11:32:48;;;;;;;5.00;3.50;;;30.60;80.50;;;;;;5052458;28;20450;-70
2023/09/28 11:35:16;;;;;;;5.10;3.30;;;30.80;81.70;;;;;;5034709;28;20450;-69
2023/09/28 11:37:45;;;;;;;5.90;3.60;;;31.00;81.30;;;;;;5051376;28;20567;-73
2023/09/28 11:40:12;;;;;;;5.63;3.30;;;31.10;79.00;;;;;;5052580;28;20458;-72
2023/09/28 11:42:42;;;;;;;4.50;3.60;;;31.20;78.60;;;;;;5052180;28;20461;-71
2023/09/28 11:45:12;;;;;;;5.00;3.37;;;31.40;77.70;;;;;;5052063;28;20518;-71
2023/09/28 11:47:40;;;;;;;6.07;3.40;;;31.60;76.30;;;;;;5034743;28;20548;-70
2023/09/28 11:50:08;;;;;;;4.60;3.47;;;31.70;76.10;;;;;;5050216;28;20449;-71
2023/09/28 11:52:36;;;;;;;4.57;3.37;;;31.80;77.90;;;;;;5051710;28;20458;-70
2023/09/28 11:55:06;;;;;;;6.40;3.93;;;31.90;74.00;;;;;;5051435;28;20507;-70
2023/09/28 11:57:35;;;;;;;5.17;3.50;;;31.90;73.70;;;;;;5051583;28;21070;-70
2023/09/28 12:00:03;;;;;;;5.80;3.70;;;32.00;75.20;;;;;;5033947;28;20481;-69
2023/09/28 12:02:31;;;;;;;4.77;3.27;;;32.10;75.90;;;;;;5051849;28;20466;-72
2023/09/28 12:04:59;;;;;;;5.33;3.67;;;32.40;75.20;;;;;;5034458;28;20454;-70
2023/09/28 12:07:26;;;;;;;5.17;3.70;;;32.60;75.40;;;;;;5032434;28;20462;-70
2023/09/28 12:09:54;;;;;;;7.60;3.90;;;32.70;74.90;;;;;;5051971;28;20454;-70
2023/09/28 12:12:22;;;;;;;6.30;3.87;;;32.70;73.80;;;;;;5051199;28;20483;-71
2023/09/28 12:14:50;;;;;;;4.37;3.13;;;32.60;73.90;;;;;;5051180;28;20465;-70
2023/09/28 12:17:19;;;;;;;4.70;3.30;;;32.90;73.60;;;;;;5051288;28;20482;-71
2023/09/28 12:19:47;;;;;;;4.50;3.00;;;33.00;72.20;;;;;;5051213;28;20967;-69
2023/09/28 12:22:16;;;;;;;4.20;3.30;;;33.20;73.20;;;;;;5033964;28;20454;-70
2023/09/28 12:24:43;;;;;;;3.30;2.80;;;33.30;74.50;;;;;;5033775;28;20450;-71
2023/09/28 12:27:10;;;;;;;4.57;3.10;;;33.50;70.60;;;;;;5033554;28;20489;-70
2023/09/28 12:29:38;;;;;;;4.03;3.30;;;33.60;70.40;;;;;;5033596;28;20460;-72
2023/09/28 12:32:05;;;;;;;5.93;3.50;;;33.40;70.10;;;;;;5051162;28;20458;-70
2023/09/28 12:34:35;;;;;;;5.17;3.20;;;33.30;69.70;;;;;;5051221;28;20457;-70
2023/09/28 12:37:03;;;;;;;4.37;3.17;;;33.40;69.30;;;;;;5050964;28;21026;-70
2023/09/28 12:39:32;;;;;;;4.10;2.90;;;33.20;70.50;;;;;;5033185;28;20446;-70
2023/09/28 12:41:59;;;;;;;5.40;2.80;;;33.40;69.20;;;;;;5033361;28;20479;-70
2023/09/28 12:44:28;;;;;;;4.20;2.80;;;33.70;69.00;;;;;;5033317;28;20508;-71
2023/09/28 12:46:56;;;;;;;3.53;2.67;;;33.90;68.60;;;;;;5051072;28;20534;-71